sensor_id;sensor_type;location;lat;lon;timestamp;temperature;humidity
40323;DHT22;26030;51.164;17.100;2022-08-25T00:02:32;25.50;74.90
40323;DHT22;26030;51.164;17.100;2022-08-25T00:07:35;25.50;75.10
40323;DHT22;26030;51.164;17.100;2022-08-25T00:12:37;25.50;74.80
40323;DHT22;26030;51.164;17.100;2022-08-25T00:17:42;25.50;74.90
40323;DHT22;26030;51.164;17.100;2022-08-25T00:22:44;25.50;74.70
40323;DHT22;26030;51.164;17.100;2022-08-25T00:27:47;25.50;74.60
40323;DHT22;26030;51.164;17.100;2022-08-25T00:32:50;25.50;74.50
40323;DHT22;26030;51.164;17.100;2022-08-25T00:37:58;25.50;75.00
40323;DHT22;26030;51.164;17.100;2022-08-25T00:43:01;25.50;74.80
40323;DHT22;26030;51.164;17.100;2022-08-25T00:48:03;25.50;74.50
40323;DHT22;26030;51.164;17.100;2022-08-25T00:53:06;25.50;74.20
40323;DHT22;26030;51.164;17.100;2022-08-25T00:58:14;25.50;74.90
40323;DHT22;26030;51.164;17.100;2022-08-25T01:03:22;25.40;74.50
40323;DHT22;26030;51.164;17.100;2022-08-25T01:08:34;25.40;74.50
40323;DHT22;26030;51.164;17.100;2022-08-25T01:13:41;25.40;74.30
40323;DHT22;26030;51.164;17.100;2022-08-25T01:18:51;25.40;74.40
40323;DHT22;26030;51.164;17.100;2022-08-25T01:23:57;25.40;74.30
40323;DHT22;26030;51.164;17.100;2022-08-25T01:29:03;25.40;74.20
40323;DHT22;26030;51.164;17.100;2022-08-25T01:34:26;25.40;74.10
40323;DHT22;26030;51.164;17.100;2022-08-25T01:39:30;25.40;74.50
40323;DHT22;26030;51.164;17.100;2022-08-25T01:44:41;25.40;74.10
40323;DHT22;26030;51.164;17.100;2022-08-25T01:49:45;25.40;74.10
40323;DHT22;26030;51.164;17.100;2022-08-25T01:54:48;25.40;74.40
40323;DHT22;26030;51.164;17.100;2022-08-25T01:59:50;25.40;74.10
40323;DHT22;26030;51.164;17.100;2022-08-25T02:04:52;25.40;74.00
40323;DHT22;26030;51.164;17.100;2022-08-25T02:09:56;25.40;74.00
40323;DHT22;26030;51.164;17.100;2022-08-25T02:15:05;25.40;74.10
40323;DHT22;26030;51.164;17.100;2022-08-25T02:20:09;25.40;73.90
40323;DHT22;26030;51.164;17.100;2022-08-25T02:25:11;25.40;73.80
40323;DHT22;26030;51.164;17.100;2022-08-25T02:30:14;25.40;74.00
40323;DHT22;26030;51.164;17.100;2022-08-25T02:35:17;25.40;73.70
40323;DHT22;26030;51.164;17.100;2022-08-25T02:40:20;25.40;73.80
40323;DHT22;26030;51.164;17.100;2022-08-25T02:45:23;25.40;73.80
40323;DHT22;26030;51.164;17.100;2022-08-25T02:50:25;25.40;73.80
40323;DHT22;26030;51.164;17.100;2022-08-25T02:55:28;25.40;74.00
40323;DHT22;26030;51.164;17.100;2022-08-25T03:00:30;25.40;73.70
40323;DHT22;26030;51.164;17.100;2022-08-25T03:05:33;25.40;74.10
40323;DHT22;26030;51.164;17.100;2022-08-25T03:10:35;25.40;73.70
40323;DHT22;26030;51.164;17.100;2022-08-25T03:15:37;25.30;74.00
40323;DHT22;26030;51.164;17.100;2022-08-25T03:20:40;25.40;73.70
40323;DHT22;26030;51.164;17.100;2022-08-25T03:25:42;25.30;73.60
40323;DHT22;26030;51.164;17.100;2022-08-25T03:31:03;25.30;73.50
40323;DHT22;26030;51.164;17.100;2022-08-25T03:36:06;25.30;73.40
40323;DHT22;26030;51.164;17.100;2022-08-25T03:41:11;25.30;73.50
40323;DHT22;26030;51.164;17.100;2022-08-25T03:46:23;25.30;73.50
40323;DHT22;26030;51.164;17.100;2022-08-25T03:51:33;25.30;73.40
40323;DHT22;26030;51.164;17.100;2022-08-25T03:56:37;25.30;73.40
40323;DHT22;26030;51.164;17.100;2022-08-25T04:01:41;25.30;73.30
40323;DHT22;26030;51.164;17.100;2022-08-25T04:06:44;25.30;73.20
40323;DHT22;26030;51.164;17.100;2022-08-25T04:11:49;25.30;73.30
40323;DHT22;26030;51.164;17.100;2022-08-25T04:17:05;25.30;73.20
40323;DHT22;26030;51.164;17.100;2022-08-25T04:22:08;25.30;73.10
40323;DHT22;26030;51.164;17.100;2022-08-25T04:27:16;25.30;73.60
40323;DHT22;26030;51.164;17.100;2022-08-25T04:32:19;25.30;72.60
40323;DHT22;26030;51.164;17.100;2022-08-25T04:37:21;25.30;73.00
40323;DHT22;26030;51.164;17.100;2022-08-25T04:42:24;25.20;72.80
40323;DHT22;26030;51.164;17.100;2022-08-25T04:47:27;25.30;72.80
40323;DHT22;26030;51.164;17.100;2022-08-25T04:52:30;25.30;72.60
40323;DHT22;26030;51.164;17.100;2022-08-25T04:57:32;25.20;72.60
40323;DHT22;26030;51.164;17.100;2022-08-25T05:02:35;25.30;72.80
40323;DHT22;26030;51.164;17.100;2022-08-25T05:07:40;25.20;72.60
40323;DHT22;26030;51.164;17.100;2022-08-25T05:12:42;25.30;72.70
40323;DHT22;26030;51.164;17.100;2022-08-25T05:17:46;25.20;72.70
40323;DHT22;26030;51.164;17.100;2022-08-25T05:22:51;25.30;72.70
40323;DHT22;26030;51.164;17.100;2022-08-25T05:27:54;25.30;73.10
40323;DHT22;26030;51.164;17.100;2022-08-25T05:32:56;25.30;72.60
40323;DHT22;26030;51.164;17.100;2022-08-25T05:37:58;25.30;72.60
40323;DHT22;26030;51.164;17.100;2022-08-25T05:43:01;25.30;72.70
40323;DHT22;26030;51.164;17.100;2022-08-25T05:48:03;25.30;72.30
40323;DHT22;26030;51.164;17.100;2022-08-25T05:53:06;25.30;72.40
40323;DHT22;26030;51.164;17.100;2022-08-25T05:58:08;25.30;72.60
40323;DHT22;26030;51.164;17.100;2022-08-25T06:03:12;25.30;72.90
40323;DHT22;26030;51.164;17.100;2022-08-25T06:08:14;25.30;72.70
40323;DHT22;26030;51.164;17.100;2022-08-25T06:13:19;25.30;72.60
40323;DHT22;26030;51.164;17.100;2022-08-25T06:18:30;25.30;72.90
40323;DHT22;26030;51.164;17.100;2022-08-25T06:23:32;25.30;72.90
40323;DHT22;26030;51.164;17.100;2022-08-25T06:28:35;25.30;73.40
40323;DHT22;26030;51.164;17.100;2022-08-25T06:33:37;25.30;72.70
40323;DHT22;26030;51.164;17.100;2022-08-25T06:38:40;25.30;73.30
40323;DHT22;26030;51.164;17.100;2022-08-25T06:43:42;25.30;72.80
40323;DHT22;26030;51.164;17.100;2022-08-25T06:48:54;25.30;73.40
40323;DHT22;26030;51.164;17.100;2022-08-25T06:53:57;25.30;73.40
40323;DHT22;26030;51.164;17.100;2022-08-25T06:59:04;25.30;73.60
40323;DHT22;26030;51.164;17.100;2022-08-25T07:04:08;25.40;73.30
40323;DHT22;26030;51.164;17.100;2022-08-25T07:09:14;25.40;74.00
40323;DHT22;26030;51.164;17.100;2022-08-25T07:14:17;25.50;73.70
40323;DHT22;26030;51.164;17.100;2022-08-25T07:19:23;25.50;74.10
40323;DHT22;26030;51.164;17.100;2022-08-25T07:24:25;25.50;74.00
40323;DHT22;26030;51.164;17.100;2022-08-25T07:29:28;25.50;74.40
40323;DHT22;26030;51.164;17.100;2022-08-25T07:34:34;25.50;74.40
40323;DHT22;26030;51.164;17.100;2022-08-25T07:40:02;25.50;73.90
40323;DHT22;26030;51.164;17.100;2022-08-25T07:45:10;25.60;74.40
40323;DHT22;26030;51.164;17.100;2022-08-25T07:50:13;25.60;74.10
40323;DHT22;26030;51.164;17.100;2022-08-25T07:55:18;25.60;74.10
40323;DHT22;26030;51.164;17.100;2022-08-25T08:00:26;25.70;74.50
40323;DHT22;26030;51.164;17.100;2022-08-25T08:05:31;25.70;74.20
40323;DHT22;26030;51.164;17.100;2022-08-25T08:10:37;25.60;73.90
40323;DHT22;26030;51.164;17.100;2022-08-25T08:16:07;25.60;74.40
40323;DHT22;26030;51.164;17.100;2022-08-25T08:21:16;25.70;74.40
40323;DHT22;26030;51.164;17.100;2022-08-25T08:26:29;25.70;73.90
40323;DHT22;26030;51.164;17.100;2022-08-25T08:31:57;25.80;74.50
40323;DHT22;26030;51.164;17.100;2022-08-25T08:37:06;25.80;73.70
40323;DHT22;26030;51.164;17.100;2022-08-25T08:53:18;25.90;74.30
40323;DHT22;26030;51.164;17.100;2022-08-25T08:58:49;26.00;74.60
40323;DHT22;26030;51.164;17.100;2022-08-25T09:04:10;26.10;73.80
40323;DHT22;26030;51.164;17.100;2022-08-25T09:09:35;26.10;73.20
40323;DHT22;26030;51.164;17.100;2022-08-25T09:20:07;26.20;73.00
40323;DHT22;26030;51.164;17.100;2022-08-25T09:25:27;26.20;73.40
40323;DHT22;26030;51.164;17.100;2022-08-25T09:30:59;26.30;73.80
40323;DHT22;26030;51.164;17.100;2022-08-25T09:36:05;26.30;73.30
40323;DHT22;26030;51.164;17.100;2022-08-25T09:41:14;26.30;72.70
40323;DHT22;26030;51.164;17.100;2022-08-25T09:46:38;26.30;72.20
40323;DHT22;26030;51.164;17.100;2022-08-25T09:51:47;26.30;72.40
40323;DHT22;26030;51.164;17.100;2022-08-25T09:56:57;26.30;71.90
40323;DHT22;26030;51.164;17.100;2022-08-25T10:02:21;26.40;70.50
40323;DHT22;26030;51.164;17.100;2022-08-25T10:07:29;26.40;70.20
40323;DHT22;26030;51.164;17.100;2022-08-25T10:12:46;26.50;70.10
40323;DHT22;26030;51.164;17.100;2022-08-25T10:17:53;26.60;70.30
40323;DHT22;26030;51.164;17.100;2022-08-25T10:23:10;26.70;69.90
40323;DHT22;26030;51.164;17.100;2022-08-25T10:28:26;26.80;69.90
40323;DHT22;26030;51.164;17.100;2022-08-25T10:33:54;26.80;70.00
40323;DHT22;26030;51.164;17.100;2022-08-25T10:44:49;26.70;71.10
40323;DHT22;26030;51.164;17.100;2022-08-25T10:50:28;26.70;70.60
40323;DHT22;26030;51.164;17.100;2022-08-25T11:02:32;26.90;70.60
40323;DHT22;26030;51.164;17.100;2022-08-25T11:07:43;26.90;70.80
40323;DHT22;26030;51.164;17.100;2022-08-25T11:12:57;26.90;71.10
40323;DHT22;26030;51.164;17.100;2022-08-25T11:18:06;26.90;71.10
40323;DHT22;26030;51.164;17.100;2022-08-25T11:28:53;27.00;71.10
40323;DHT22;26030;51.164;17.100;2022-08-25T11:33:57;27.00;71.00
40323;DHT22;26030;51.164;17.100;2022-08-25T11:50:02;27.00;71.50
40323;DHT22;26030;51.164;17.100;2022-08-25T12:00:40;27.10;71.20
40323;DHT22;26030;51.164;17.100;2022-08-25T12:05:49;27.20;71.20
40323;DHT22;26030;51.164;17.100;2022-08-25T12:11:03;27.20;71.50
40323;DHT22;26030;51.164;17.100;2022-08-25T12:16:37;27.20;71.20
40323;DHT22;26030;51.164;17.100;2022-08-25T12:21:56;27.30;71.20
40323;DHT22;26030;51.164;17.100;2022-08-25T12:27:54;27.30;71.20
40323;DHT22;26030;51.164;17.100;2022-08-25T12:38:49;27.40;71.10
40323;DHT22;26030;51.164;17.100;2022-08-25T12:44:08;27.40;71.20
40323;DHT22;26030;51.164;17.100;2022-08-25T12:49:37;27.40;70.90
40323;DHT22;26030;51.164;17.100;2022-08-25T12:54:48;27.50;70.80
40323;DHT22;26030;51.164;17.100;2022-08-25T13:00:21;27.50;70.80
40323;DHT22;26030;51.164;17.100;2022-08-25T13:16:50;27.60;70.70
40323;DHT22;26030;51.164;17.100;2022-08-25T13:21:57;27.50;70.40
40323;DHT22;26030;51.164;17.100;2022-08-25T13:27:03;27.50;70.40
40323;DHT22;26030;51.164;17.100;2022-08-25T13:32:11;27.50;70.70
40323;DHT22;26030;51.164;17.100;2022-08-25T13:37:17;27.60;70.70
40323;DHT22;26030;51.164;17.100;2022-08-25T13:42:31;27.60;70.60
40323;DHT22;26030;51.164;17.100;2022-08-25T13:47:35;27.60;71.10
40323;DHT22;26030;51.164;17.100;2022-08-25T13:57:57;27.60;70.60
40323;DHT22;26030;51.164;17.100;2022-08-25T14:03:31;27.60;71.00
40323;DHT22;26030;51.164;17.100;2022-08-25T14:08:39;27.60;70.70
40323;DHT22;26030;51.164;17.100;2022-08-25T14:13:46;27.60;71.10
40323;DHT22;26030;51.164;17.100;2022-08-25T14:18:51;27.60;71.00
40323;DHT22;26030;51.164;17.100;2022-08-25T14:23:59;27.20;67.70
40323;DHT22;26030;51.164;17.100;2022-08-25T14:29:01;26.50;65.80
40323;DHT22;26030;51.164;17.100;2022-08-25T14:34:18;26.20;64.80
40323;DHT22;26030;51.164;17.100;2022-08-25T14:39:26;26.30;65.40
40323;DHT22;26030;51.164;17.100;2022-08-25T14:44:29;26.20;67.70
40323;DHT22;26030;51.164;17.100;2022-08-25T14:49:34;26.20;68.00
40323;DHT22;26030;51.164;17.100;2022-08-25T14:54:39;26.30;67.10
40323;DHT22;26030;51.164;17.100;2022-08-25T14:59:42;26.20;66.10
40323;DHT22;26030;51.164;17.100;2022-08-25T15:04:57;26.00;65.50
40323;DHT22;26030;51.164;17.100;2022-08-25T15:10:07;26.10;66.50
40323;DHT22;26030;51.164;17.100;2022-08-25T15:15:16;26.10;68.10
40323;DHT22;26030;51.164;17.100;2022-08-25T15:20:20;26.00;69.60
40323;DHT22;26030;51.164;17.100;2022-08-25T15:25:22;25.90;69.90
40323;DHT22;26030;51.164;17.100;2022-08-25T15:30:31;25.70;68.30
40323;DHT22;26030;51.164;17.100;2022-08-25T15:35:34;25.70;66.70
40323;DHT22;26030;51.164;17.100;2022-08-25T15:40:37;25.70;66.60
40323;DHT22;26030;51.164;17.100;2022-08-25T15:45:48;25.80;67.20
40323;DHT22;26030;51.164;17.100;2022-08-25T15:50:54;25.70;68.00
40323;DHT22;26030;51.164;17.100;2022-08-25T15:55:59;25.60;69.30
40323;DHT22;26030;51.164;17.100;2022-08-25T16:01:17;25.50;68.90
40323;DHT22;26030;51.164;17.100;2022-08-25T16:06:30;25.50;67.70
40323;DHT22;26030;51.164;17.100;2022-08-25T16:11:36;25.40;66.30
40323;DHT22;26030;51.164;17.100;2022-08-25T16:17:21;25.50;66.30
40323;DHT22;26030;51.164;17.100;2022-08-25T16:22:24;25.50;65.80
40323;DHT22;26030;51.164;17.100;2022-08-25T16:27:30;25.40;67.30
40323;DHT22;26030;51.164;17.100;2022-08-25T16:32:40;25.40;68.40
40323;DHT22;26030;51.164;17.100;2022-08-25T16:37:43;25.30;68.90
40323;DHT22;26030;51.164;17.100;2022-08-25T16:42:45;25.20;67.70
40323;DHT22;26030;51.164;17.100;2022-08-25T16:47:48;25.20;65.70
40323;DHT22;26030;51.164;17.100;2022-08-25T16:52:51;25.20;65.80
40323;DHT22;26030;51.164;17.100;2022-08-25T16:58:12;25.20;66.80
40323;DHT22;26030;51.164;17.100;2022-08-25T17:03:14;25.20;69.90
40323;DHT22;26030;51.164;17.100;2022-08-25T17:08:17;25.10;70.30
40323;DHT22;26030;51.164;17.100;2022-08-25T17:13:36;25.10;68.90
40323;DHT22;26030;51.164;17.100;2022-08-25T17:18:46;25.00;66.70
40323;DHT22;26030;51.164;17.100;2022-08-25T17:23:49;25.00;65.70
40323;DHT22;26030;51.164;17.100;2022-08-25T17:28:52;25.10;69.20
40323;DHT22;26030;51.164;17.100;2022-08-25T17:33:55;25.00;68.10
40323;DHT22;26030;51.164;17.100;2022-08-25T17:38:58;25.00;67.20
40323;DHT22;26030;51.164;17.100;2022-08-25T17:44:02;25.00;69.90
40323;DHT22;26030;51.164;17.100;2022-08-25T17:49:05;25.00;67.60
40323;DHT22;26030;51.164;17.100;2022-08-25T17:54:08;25.10;68.20
40323;DHT22;26030;51.164;17.100;2022-08-25T17:59:12;25.00;70.30
40323;DHT22;26030;51.164;17.100;2022-08-25T18:04:14;24.90;68.00
40323;DHT22;26030;51.164;17.100;2022-08-25T18:09:20;25.10;71.50
40323;DHT22;26030;51.164;17.100;2022-08-25T18:14:30;25.10;69.00
40323;DHT22;26030;51.164;17.100;2022-08-25T18:19:38;25.10;72.60
40323;DHT22;26030;51.164;17.100;2022-08-25T18:24:45;25.00;71.80
40323;DHT22;26030;51.164;17.100;2022-08-25T18:29:50;25.00;68.50
40323;DHT22;26030;51.164;17.100;2022-08-25T18:34:56;25.00;73.20
40323;DHT22;26030;51.164;17.100;2022-08-25T18:40:02;24.90;71.30
40323;DHT22;26030;51.164;17.100;2022-08-25T18:45:48;25.10;71.70
40323;DHT22;26030;51.164;17.100;2022-08-25T18:51:02;25.20;71.00
40323;DHT22;26030;51.164;17.100;2022-08-25T18:56:07;25.50;70.30
40323;DHT22;26030;51.164;17.100;2022-08-25T19:01:14;25.70;70.90
40323;DHT22;26030;51.164;17.100;2022-08-25T19:06:23;25.70;71.60
40323;DHT22;26030;51.164;17.100;2022-08-25T19:11:26;25.70;71.60
40323;DHT22;26030;51.164;17.100;2022-08-25T19:16:40;25.70;71.30
40323;DHT22;26030;51.164;17.100;2022-08-25T19:21:44;25.80;71.60
40323;DHT22;26030;51.164;17.100;2022-08-25T19:26:49;25.80;71.90
40323;DHT22;26030;51.164;17.100;2022-08-25T19:31:56;25.90;71.60
40323;DHT22;26030;51.164;17.100;2022-08-25T19:37:05;25.90;71.60
40323;DHT22;26030;51.164;17.100;2022-08-25T19:42:10;25.90;71.80
40323;DHT22;26030;51.164;17.100;2022-08-25T19:47:36;26.00;71.20
40323;DHT22;26030;51.164;17.100;2022-08-25T19:52:40;26.10;71.60
40323;DHT22;26030;51.164;17.100;2022-08-25T19:57:47;26.10;71.80
40323;DHT22;26030;51.164;17.100;2022-08-25T20:02:59;26.10;71.70
40323;DHT22;26030;51.164;17.100;2022-08-25T20:08:03;26.20;71.90
40323;DHT22;26030;51.164;17.100;2022-08-25T20:13:12;26.20;72.80
40323;DHT22;26030;51.164;17.100;2022-08-25T20:18:16;26.30;71.80
40323;DHT22;26030;51.164;17.100;2022-08-25T20:23:22;26.30;72.10
40323;DHT22;26030;51.164;17.100;2022-08-25T20:28:43;26.30;71.80
40323;DHT22;26030;51.164;17.100;2022-08-25T20:33:48;26.30;71.70
40323;DHT22;26030;51.164;17.100;2022-08-25T20:39:04;26.30;72.00
40323;DHT22;26030;51.164;17.100;2022-08-25T20:44:09;26.40;72.00
40323;DHT22;26030;51.164;17.100;2022-08-25T20:49:11;26.40;72.70
40323;DHT22;26030;51.164;17.100;2022-08-25T20:54:17;26.40;72.80
40323;DHT22;26030;51.164;17.100;2022-08-25T20:59:31;26.40;74.40
40323;DHT22;26030;51.164;17.100;2022-08-25T21:04:37;26.40;75.10
40323;DHT22;26030;51.164;17.100;2022-08-25T21:09:51;26.40;75.60
40323;DHT22;26030;51.164;17.100;2022-08-25T21:14:58;26.40;75.80
40323;DHT22;26030;51.164;17.100;2022-08-25T21:20:03;26.40;75.40
40323;DHT22;26030;51.164;17.100;2022-08-25T21:25:11;26.50;76.20
40323;DHT22;26030;51.164;17.100;2022-08-25T21:30:41;26.50;76.20
40323;DHT22;26030;51.164;17.100;2022-08-25T21:35:49;26.50;76.10
40323;DHT22;26030;51.164;17.100;2022-08-25T21:41:10;26.60;76.20
40323;DHT22;26030;51.164;17.100;2022-08-25T21:46:29;26.50;75.90
40323;DHT22;26030;51.164;17.100;2022-08-25T21:51:41;26.60;75.80
40323;DHT22;26030;51.164;17.100;2022-08-25T21:57:03;26.50;75.90
40323;DHT22;26030;51.164;17.100;2022-08-25T22:02:13;26.50;76.00
40323;DHT22;26030;51.164;17.100;2022-08-25T22:07:24;26.60;76.10
40323;DHT22;26030;51.164;17.100;2022-08-25T22:12:36;26.70;75.70
40323;DHT22;26030;51.164;17.100;2022-08-25T22:17:41;26.70;75.50
40323;DHT22;26030;51.164;17.100;2022-08-25T22:22:46;26.60;75.20
40323;DHT22;26030;51.164;17.100;2022-08-25T22:27:48;26.60;74.90
40323;DHT22;26030;51.164;17.100;2022-08-25T22:32:58;26.70;74.80
40323;DHT22;26030;51.164;17.100;2022-08-25T22:38:01;26.60;74.40
40323;DHT22;26030;51.164;17.100;2022-08-25T22:43:07;26.70;74.60
40323;DHT22;26030;51.164;17.100;2022-08-25T22:48:16;26.70;74.30
40323;DHT22;26030;51.164;17.100;2022-08-25T22:53:21;26.70;74.10
40323;DHT22;26030;51.164;17.100;2022-08-25T22:58:25;26.60;74.00
40323;DHT22;26030;51.164;17.100;2022-08-25T23:03:28;26.60;74.00
40323;DHT22;26030;51.164;17.100;2022-08-25T23:08:31;26.60;74.10
40323;DHT22;26030;51.164;17.100;2022-08-25T23:13:45;26.60;74.70
40323;DHT22;26030;51.164;17.100;2022-08-25T23:18:48;26.60;74.40
40323;DHT22;26030;51.164;17.100;2022-08-25T23:23:57;26.60;74.10
40323;DHT22;26030;51.164;17.100;2022-08-25T23:29:03;26.60;73.60
40323;DHT22;26030;51.164;17.100;2022-08-25T23:34:19;26.60;74.00
40323;DHT22;26030;51.164;17.100;2022-08-25T23:39:23;26.60;73.90
40323;DHT22;26030;51.164;17.100;2022-08-25T23:44:26;26.60;73.80
40323;DHT22;26030;51.164;17.100;2022-08-25T23:49:29;26.50;73.60
40323;DHT22;26030;51.164;17.100;2022-08-25T23:54:32;26.60;73.90
40323;DHT22;26030;51.164;17.100;2022-08-25T23:59:41;26.60;73.90
